Aérodrome :
LOGIN :

S'inscrire | Disclaimer

   EN    FR    IT 

 










Légende :    VFR   VFR Marginal   IFR   IFR Intensif   IFR Très Intensif
Visi : 
Plafond : 
>= 8 km
>= 3000ft
5 à 8 km
1000 à 3000 ft
1500m à 5 km
500 à 1000 ft
800 à 1500m
200 à 500 ft
< 800m
< 200 ft
Symboles :   Orages  Brouillard  Fortes neiges  Fortes précipitations  Vent > 20 kt
SIGMETs :   Divers  Orages  Givrage  Turbulence  Onde Orograph.  Cendres Volcan.







- Altitude de l'aérodrome : 299 ft
- Code IATA : EDM
- Voir les cartes d'approche


LFRI - La Roche Sur Yon - Les Ajoncs

DERNIER METAR :
  • 222330Z AUTO 19003KT 0650 0550 R28/0800N FG VV/// 06/06 Q1026

METARs EXPIRÉS :
  • 222300Z AUTO 18004KT 0600 0550 R28/0750N FG VV/// 07/07 Q1026
  • 222230Z AUTO 22003KT 0900 0750 R28/1600D FG VV/// 07/06 Q1026
  • 222200Z AUTO 23003KT 3700 1100 R28/P2000 BR SCT002 OVC017 07/07 Q1026
  • 222130Z AUTO 22003KT 4900 2400 BR FEW009 BKN018 07/07 Q1026
  • 222100Z AUTO 22003KT 8000 NSC 07/07 Q1026 NOSIG

TAF TAF LFRI
Valide du 22 à 18h jusqu'au 23 à 18h UTC


221700Z 2218/2318 30010KT 9999 SCT040
BECMG 2221/2223 19004KT
PROB30
TEMPO 2223/2302 2800 BR BKN005
BECMG 2303/2305 4000 -DZ BKN010
TEMPO 2305/2318 2500 -RADZ BKN003
Pas de NOTAMs connus pour ce terrain.



MET'MAP, la Météo Aéronautique d'un coup d'oeil ! - Copyright ORBIFLY Décembre 2007 - Disclaimer

ORBIFLY MET'MAP TEAM :

Programmation & Développement : Alexandra Zaïnal
Conception & Développement : Baudouin d'Aumeries
Co-Programmation & Développement : Marc-Olivier Méhu
Soutien technique & logistique : Manuel Goepfert

Contact : metmap@orbifly.com




SOURCES & CREDITS :

   NOAA